Simara — MBEO4 — position and weather

sailwx.info

Track history (hours):
 
Tides and Currents Weather Stations Pressure Air Temp Water Temp Dewpoint Dewpoint Depression Visibility Wind Speed Wind Dir Waves Ship Positions

Simara

Last reported at 2018-May-03 04:14 UTC. Time now 2018-Jun-20 02:08 UTC.
Position N 37°39' W 000°43'.
Warning: this ship's position is 47 days out of date.

Length 12 m.

Type: Sailing vessel. MMSI: 232008639.

Date/timePositionNaut miles runAvg speedWind from/ knotsBaromVisibWave heightAir tempDewpointWater temp
2018-May-03 04:14N 37°39' W 000°43'0 0.0
2018-May-03 03:44N 37°39' W 000°43'0 0.0
2018-May-03 03:20N 37°39' W 000°43'0 0.0
2018-May-03 02:50N 37°39' W 000°43'0 0.0
2018-May-03 02:26N 37°39' W 000°43'0 0.0
2018-May-03 01:44N 37°39' W 000°43'0 0.0
2018-May-03 01:14N 37°39' W 000°43'0 0.0
2018-May-03 00:56N 37°39' W 000°43'0 0.0
2018-May-03 00:20N 37°39' W 000°43'0 0.0
2018-May-02 23:50N 37°39' W 000°43'0 0.0
2018-May-02 23:14N 37°39' W 000°44'0 0.0
2018-May-02 22:56N 37°39' W 000°44'0 0.0
2018-May-02 17:32N 37°39' W 000°44'0 0.1
2018-May-02 17:26N 37°39' W 000°44'0 0.0
2018-May-02 15:38N 37°39' W 000°44'0 0.0
2018-May-02 15:26N 37°39' W 000°44'0 0.0
2018-May-02 14:56N 37°39' W 000°44'0 0.0
2018-May-02 12:56N 37°39' W 000°44'0 0.0
2018-May-02 12:02N 37°39' W 000°44'0 0.0
2018-May-02 11:44N 37°39' W 000°44'0 0.1
2018-May-02 11:08N 37°39' W 000°44'0 0.0
2018-May-02 10:50N 37°39' W 000°44'0 0.0
2018-May-02 06:08N 37°39' W 000°44'0 0.0
2018-May-01 18:56N 37°39' W 000°44'0 0.0
2018-May-01 06:20N 37°39' W 000°44'0 0.0
2018-May-01 05:56N 37°39' W 000°44'0 0.0
2018-May-01 03:50N 37°39' W 000°44'0 0.0
2018-May-01 03:14N 37°39' W 000°44'0 0.0
2018-Apr-29 21:08N 37°39' W 000°44'0 0.0
2018-Apr-29 20:50N 37°39' W 000°44'0 0.0
2018-Apr-29 20:26N 37°39' W 000°44'1 0.5
2018-Apr-29 17:55N 37°40' W 000°45'2 5.9
2018-Apr-29 17:30N 37°42' W 000°47'2 4.0
2018-Apr-29 16:58N 37°44' W 000°46'1 2.9
2018-Apr-29 16:28N 37°45' W 000°46'2 3.7
2018-Apr-29 16:00N 37°45' W 000°44'1 1.1
2018-Apr-29 15:30N 37°44' W 000°43'0 0.9
2018-Apr-29 15:00N 37°44' W 000°44'2 3.3
2018-Apr-29 14:30N 37°43' W 000°42'3 6.3
2018-Apr-29 14:00N 37°40' W 000°42'8 5.9
2018-Apr-29 12:44N 37°34' W 000°47'38 7.3
2018-Apr-29 07:31N 37°24' W 001°33'0 7.4
2018-Apr-29 07:30N 37°24' W 001°33'1 2.3
2018-Apr-29 06:58N 37°24' W 001°34'0 0.0
2018-Apr-29 06:28N 37°24' W 001°34'0 0.0
2018-Apr-29 05:58N 37°24' W 001°34'0 0.0
2018-Apr-29 05:28N 37°24' W 001°34'0 0.0
2018-Apr-29 04:58N 37°24' W 001°34'0 0.0
2018-Apr-29 04:28N 37°24' W 001°34'0 0.0
2018-Apr-29 03:58N 37°24' W 001°34'0 0.0
2018-Apr-29 03:28N 37°24' W 001°34'0 0.0
2018-Apr-29 02:58N 37°24' W 001°34'0 0.0
2018-Apr-29 02:28N 37°24' W 001°34'0 0.0
2018-Apr-29 01:58N 37°24' W 001°34'0 0.0
2018-Apr-29 01:28N 37°24' W 001°34'0 0.0
2018-Apr-29 00:58N 37°24' W 001°34'0 0.0
2018-Apr-29 00:22N 37°24' W 001°34'0 0.0
2018-Apr-28 23:58N 37°24' W 001°34'0 0.0
2018-Apr-28 23:28N 37°24' W 001°34'0 0.0
2018-Apr-28 22:58N 37°24' W 001°34'0 0.0
2018-Apr-28 22:28N 37°24' W 001°34'0 0.0
2018-Apr-28 21:58N 37°24' W 001°34'0 0.0
2018-Apr-28 21:28N 37°24' W 001°34'0 0.0
2018-Apr-28 20:58N 37°24' W 001°34'0 0.0
2018-Apr-28 20:28N 37°24' W 001°34'0 0.0
2018-Apr-28 19:58N 37°24' W 001°34'0 0.0
2018-Apr-28 19:28N 37°24' W 001°34'0 0.1
2018-Apr-28 19:00N 37°24' W 001°35'  
Track history (hours):
 
Tides and Currents Weather Stations Pressure Air Temp Water Temp Dewpoint Dewpoint Depression Visibility Wind Speed Wind Dir Waves Ship Positions

Simara

Last reported at 2018-May-03 04:14 UTC. Time now 2018-Jun-20 02:08 UTC.
Position N 37°39' W 000°43'.
Warning: this ship's position is 47 days out of date.

Length 12 m.

Type: Sailing vessel. MMSI: 232008639.

Date/timePositionNaut miles runAvg speedWind from/ knotsBaromVisibWave heightAir tempDewpointWater temp
2018-May-03 04:14N 37°39' W 000°43'0 0.0
2018-May-03 03:44N 37°39' W 000°43'0 0.0
2018-May-03 03:20N 37°39' W 000°43'0 0.0
2018-May-03 02:50N 37°39' W 000°43'0 0.0
2018-May-03 02:26N 37°39' W 000°43'0 0.0
2018-May-03 01:44N 37°39' W 000°43'0 0.0
2018-May-03 01:14N 37°39' W 000°43'0 0.0
2018-May-03 00:56N 37°39' W 000°43'0 0.0
2018-May-03 00:20N 37°39' W 000°43'0 0.0
2018-May-02 23:50N 37°39' W 000°43'0 0.0
2018-May-02 23:14N 37°39' W 000°44'0 0.0
2018-May-02 22:56N 37°39' W 000°44'0 0.0
2018-May-02 17:32N 37°39' W 000°44'0 0.1
2018-May-02 17:26N 37°39' W 000°44'0 0.0
2018-May-02 15:38N 37°39' W 000°44'0 0.0
2018-May-02 15:26N 37°39' W 000°44'0 0.0
2018-May-02 14:56N 37°39' W 000°44'0 0.0
2018-May-02 12:56N 37°39' W 000°44'0 0.0
2018-May-02 12:02N 37°39' W 000°44'0 0.0
2018-May-02 11:44N 37°39' W 000°44'0 0.1
2018-May-02 11:08N 37°39' W 000°44'0 0.0
2018-May-02 10:50N 37°39' W 000°44'0 0.0
2018-May-02 06:08N 37°39' W 000°44'0 0.0
2018-May-01 18:56N 37°39' W 000°44'0 0.0
2018-May-01 06:20N 37°39' W 000°44'0 0.0
2018-May-01 05:56N 37°39' W 000°44'0 0.0
2018-May-01 03:50N 37°39' W 000°44'0 0.0
2018-May-01 03:14N 37°39' W 000°44'0 0.0
2018-Apr-29 21:08N 37°39' W 000°44'0 0.0
2018-Apr-29 20:50N 37°39' W 000°44'0 0.0
2018-Apr-29 20:26N 37°39' W 000°44'1 0.5
2018-Apr-29 17:55N 37°40' W 000°45'2 5.9
2018-Apr-29 17:30N 37°42' W 000°47'2 4.0
2018-Apr-29 16:58N 37°44' W 000°46'1 2.9
2018-Apr-29 16:28N 37°45' W 000°46'2 3.7
2018-Apr-29 16:00N 37°45' W 000°44'1 1.1
2018-Apr-29 15:30N 37°44' W 000°43'0 0.9
2018-Apr-29 15:00N 37°44' W 000°44'2 3.3
2018-Apr-29 14:30N 37°43' W 000°42'3 6.3
2018-Apr-29 14:00N 37°40' W 000°42'8 5.9
2018-Apr-29 12:44N 37°34' W 000°47'38 7.3
2018-Apr-29 07:31N 37°24' W 001°33'0 7.4
2018-Apr-29 07:30N 37°24' W 001°33'1 2.3
2018-Apr-29 06:58N 37°24' W 001°34'0 0.0
2018-Apr-29 06:28N 37°24' W 001°34'0 0.0
2018-Apr-29 05:58N 37°24' W 001°34'0 0.0
2018-Apr-29 05:28N 37°24' W 001°34'0 0.0
2018-Apr-29 04:58N 37°24' W 001°34'0 0.0
2018-Apr-29 04:28N 37°24' W 001°34'0 0.0
2018-Apr-29 03:58N 37°24' W 001°34'0 0.0
2018-Apr-29 03:28N 37°24' W 001°34'0 0.0
2018-Apr-29 02:58N 37°24' W 001°34'0 0.0
2018-Apr-29 02:28N 37°24' W 001°34'0 0.0
2018-Apr-29 01:58N 37°24' W 001°34'0 0.0
2018-Apr-29 01:28N 37°24' W 001°34'0 0.0
2018-Apr-29 00:58N 37°24' W 001°34'0 0.0
2018-Apr-29 00:22N 37°24' W 001°34'0 0.0
2018-Apr-28 23:58N 37°24' W 001°34'0 0.0
2018-Apr-28 23:28N 37°24' W 001°34'0 0.0
2018-Apr-28 22:58N 37°24' W 001°34'0 0.0
2018-Apr-28 22:28N 37°24' W 001°34'0 0.0
2018-Apr-28 21:58N 37°24' W 001°34'0 0.0
2018-Apr-28 21:28N 37°24' W 001°34'0 0.0
2018-Apr-28 20:58N 37°24' W 001°34'0 0.0
2018-Apr-28 20:28N 37°24' W 001°34'0 0.0
2018-Apr-28 19:58N 37°24' W 001°34'0 0.0
2018-Apr-28 19:28N 37°24' W 001°34'0 0.1
2018-Apr-28 19:00N 37°24' W 001°35'  

Dump ship's entire track history